Wetterdaten: Woche 17.01.11 - 23.01.11 (KW3)
Datum Zeit Temp. Innen Temp. Aussen UV X Diff Temp. Feuchte Inne Feuchte Auss Sonnenschein Luftdruck Regen ab 0,1 Wind Sonnenschein T Regendauer Windben
17.01.2011 00:00 14,2 C 5,4 C 0,0 UV-I 0,0 C 60 % 90 % 0 % 1023,5 hPa 0,0 l/m 1,9 km/h (1 Bft) 0,00 h 0,00 h 3,6 km/h (1 Bft)
17.01.2011 01:00 14,0 C 5,2 C 0,0 UV-I 0,0 C 60 % 91 % 0 % 1023,6 hPa 0,0 l/m 2,9 km/h (1 Bft) 0,00 h 0,00 h 3,6 km/h (1 Bft)
17.01.2011 02:00 14,0 C 4,9 C 0,0 UV-I 0,0 C 59 % 91 % 0 % 1023,5 hPa 0,0 l/m 4,0 km/h (1 Bft) 0,00 h 0,00 h 4,2 km/h (1 Bft)
17.01.2011 03:00 13,9 C 4,6 C 0,0 UV-I 0,0 C 59 % 91 % 0 % 1023,7 hPa 0,0 l/m 4,8 km/h (1 Bft) 0,00 h 0,00 h 6,0 km/h (2 Bft)
17.01.2011 04:00 13,8 C 4,4 C 0,0 UV-I 0,0 C 59 % 92 % 0 % 1023,5 hPa 0,0 l/m 5,5 km/h (1 Bft) 0,00 h 0,00 h 6,0 km/h (2 Bft)
17.01.2011 05:00 13,7 C 4,2 C 0,0 UV-I 0,0 C 58 % 92 % 0 % 1023,2 hPa 0,0 l/m 4,8 km/h (1 Bft) 0,00 h 0,00 h 4,8 km/h (1 Bft)
17.01.2011 06:00 13,6 C 3,9 C 0,0 UV-I 0,0 C 58 % 92 % 0 % 1023,1 hPa 0,0 l/m 4,5 km/h (1 Bft) 0,00 h 0,00 h 4,8 km/h (1 Bft)
17.01.2011 07:00 13,6 C 4,0 C 0,0 UV-I 0,0 C 58 % 92 % 0 % 1023,2 hPa 0,0 l/m 5,8 km/h (2 Bft) 0,00 h 0,00 h 6,8 km/h (2 Bft)
17.01.2011 08:00 13,6 C 4,5 C 0,0 UV-I 0,0 C 58 % 92 % 0 % 1023,1 hPa 0,0 l/m 5,7 km/h (1 Bft) 0,00 h 0,00 h 5,5 km/h (1 Bft)
17.01.2011 09:00 13,7 C 5,0 C 0,0 UV-I 0,0 C 58 % 93 % 0 % 1023,2 hPa 0,0 l/m 6,4 km/h (2 Bft) 0,00 h 0,00 h 7,8 km/h (2 Bft)
17.01.2011 10:00 13,8 C 5,5 C 0,4 UV-I 0,2 C 58 % 92 % 5 % 1023,2 hPa 0,0 l/m 6,1 km/h (2 Bft) 0,00 h 0,00 h 7,1 km/h (2 Bft)
17.01.2011 11:00 14,0 C 6,8 C 0,8 UV-I 2,1 C 57 % 90 % 60 % 1023,1 hPa 0,0 l/m 6,4 km/h (2 Bft) 0,47 h 0,00 h 6,7 km/h (2 Bft)
17.01.2011 12:00 14,3 C 7,7 C 0,4 UV-I 1,9 C 57 % 88 % 54 % 1022,9 hPa 0,0 l/m 8,3 km/h (2 Bft) 0,23 h 0,00 h 9,6 km/h (2 Bft)
17.01.2011 13:00 14,7 C 8,7 C 0,8 UV-I 1,5 C 57 % 86 % 42 % 1022,6 hPa 0,0 l/m 6,6 km/h (2 Bft) 0,00 h 0,00 h 6,9 km/h (2 Bft)
17.01.2011 14:00 15,0 C 9,1 C 0,6 UV-I 0,4 C 56 % 84 % 11 % 1022,2 hPa 0,0 l/m 5,7 km/h (1 Bft) 0,00 h 0,00 h 6,8 km/h (2 Bft)
17.01.2011 15:00 15,0 C 9,1 C 0,1 UV-I 0,0 C 57 % 85 % 0 % 1021,6 hPa 0,0 l/m 4,8 km/h (1 Bft) 0,00 h 0,00 h 6,0 km/h (2 Bft)
17.01.2011 16:00 14,8 C 9,5 C 0,0 UV-I 0,0 C 58 % 86 % 0 % 1021,3 hPa 0,0 l/m 4,1 km/h (1 Bft) 0,00 h 0,00 h 4,2 km/h (1 Bft)
17.01.2011 17:00 14,6 C 9,9 C 0,0 UV-I 0,0 C 59 % 86 % 0 % 1021,3 hPa 0,0 l/m 2,6 km/h (1 Bft) 0,00 h 0,00 h 3,1 km/h (1 Bft)
17.01.2011 18:00 14,4 C 10,2 C 0,0 UV-I 0,0 C 60 % 85 % 0 % 1021,3 hPa 0,0 l/m 3,4 km/h (1 Bft) 0,00 h 0,00 h 4,7 km/h (1 Bft)
17.01.2011 19:00 14,4 C 10,1 C 0,0 UV-I 0,0 C 60 % 83 % 0 % 1021,6 hPa 0,0 l/m 3,6 km/h (1 Bft) 0,00 h 0,00 h 5,8 km/h (1 Bft)
17.01.2011 20:00 14,4 C 9,9 C 0,0 UV-I 0,0 C 60 % 84 % 0 % 1021,8 hPa 0,0 l/m 8,9 km/h (2 Bft) 0,00 h 0,00 h 9,2 km/h (2 Bft)
17.01.2011 21:00 14,4 C 9,7 C 0,0 UV-I 0,0 C 61 % 85 % 0 % 1022,0 hPa 0,0 l/m 8,3 km/h (2 Bft) 0,00 h 0,00 h 8,6 km/h (2 Bft)
17.01.2011 22:00 14,4 C 9,7 C 0,0 UV-I 0,0 C 61 % 86 % 0 % 1022,3 hPa 0,0 l/m 5,5 km/h (1 Bft) 0,00 h 0,00 h 7,0 km/h (2 Bft)
17.01.2011 23:00 14,4 C 9,9 C 0,0 UV-I 0,0 C 61 % 85 % 0 % 1022,5 hPa 0,0 l/m 7,2 km/h (2 Bft) 0,00 h 0,00 h 8,4 km/h (2 Bft)
18.01.2011 00:00 14,4 C 9,9 C 0,0 UV-I 0,0 C 61 % 85 % 0 % 1022,7 hPa 0,0 l/m 7,3 km/h (2 Bft) 0,00 h 0,00 h 8,7 km/h (2 Bft)
18.01.2011 01:00 14,4 C 9,7 C 0,0 UV-I 0,0 C 61 % 85 % 0 % 1023,0 hPa 0,0 l/m 5,1 km/h (1 Bft) 0,00 h 0,00 h 5,1 km/h (1 Bft)
18.01.2011 02:00 14,4 C 9,5 C 0,0 UV-I 0,0 C 61 % 86 % 0 % 1023,2 hPa 0,0 l/m 2,8 km/h (1 Bft) 0,00 h 0,00 h 3,9 km/h (1 Bft)
18.01.2011 03:00 14,4 C 9,1 C 0,0 UV-I 0,0 C 61 % 87 % 0 % 1023,2 hPa 0,0 l/m 3,3 km/h (1 Bft) 0,00 h 0,00 h 4,5 km/h (1 Bft)
18.01.2011 04:00 14,4 C 8,7 C 0,0 UV-I 0,0 C 61 % 87 % 0 % 1023,4 hPa 0,0 l/m 1,8 km/h (1 Bft) 0,00 h 0,00 h 1,8 km/h (1 Bft)
18.01.2011 05:00 14,3 C 8,0 C 0,0 UV-I 0,0 C 61 % 89 % 0 % 1023,1 hPa 0,0 l/m 0,0 km/h (0 Bft) 0,00 h 0,00 h 0,0 km/h (0 Bft)
18.01.2011 06:00 14,3 C 7,7 C 0,0 UV-I 0,0 C 61 % 90 % 0 % 1022,5 hPa 0,2 l/m 0,6 km/h (0 Bft) 0,00 h 0,00 h 0,6 km/h (0 Bft)
18.01.2011 07:00 14,3 C 7,5 C 0,0 UV-I 0,0 C 62 % 91 % 0 % 1022,0 hPa 0,8 l/m 0,1 km/h (0 Bft) 0,00 h 0,00 h 0,0 km/h (0 Bft)
18.01.2011 08:00 14,3 C 7,5 C 0,0 UV-I 0,0 C 62 % 92 % 0 % 1022,1 hPa 0,1 l/m 0,1 km/h (0 Bft) 0,00 h 0,00 h 0,1 km/h (0 Bft)
18.01.2011 09:00 14,4 C 8,0 C 0,0 UV-I 0,0 C 62 % 93 % 0 % 1022,3 hPa 0,0 l/m 1,4 km/h (1 Bft) 0,00 h 0,00 h 2,4 km/h (1 Bft)
18.01.2011 10:00 14,3 C 8,5 C 0,0 UV-I 0,0 C 63 % 92 % 0 % 1022,4 hPa 0,7 l/m 4,2 km/h (1 Bft) 0,00 h 0,00 h 5,0 km/h (1 Bft)
18.01.2011 11:00 14,4 C 8,6 C 0,0 UV-I 0,0 C 63 % 92 % 0 % 1022,6 hPa 0,5 l/m 4,1 km/h (1 Bft) 0,00 h 0,00 h 5,3 km/h (1 Bft)
18.01.2011 12:00 14,4 C 8,7 C 0,4 UV-I 0,1 C 62 % 91 % 2 % 1022,4 hPa 0,2 l/m 3,0 km/h (1 Bft) 0,00 h 0,00 h 3,1 km/h (1 Bft)
18.01.2011 13:00 14,6 C 9,0 C 0,3 UV-I 0,0 C 62 % 91 % 1 % 1021,9 hPa 1,7 l/m 0,9 km/h (0 Bft) 0,00 h 0,00 h 1,6 km/h (1 Bft)
18.01.2011 14:00 14,6 C 7,0 C 0,0 UV-I 0,0 C 62 % 91 % 0 % 1022,5 hPa 3,6 l/m 4,1 km/h (1 Bft) 0,00 h 0,00 h 5,0 km/h (1 Bft)
18.01.2011 15:00 14,5 C 6,6 C 0,2 UV-I 0,0 C 62 % 92 % 0 % 1022,9 hPa 0,0 l/m 6,3 km/h (2 Bft) 0,00 h 0,00 h 6,9 km/h (2 Bft)
18.01.2011 16:00 14,4 C 5,9 C 0,0 UV-I 0,0 C 62 % 92 % 0 % 1023,9 hPa 0,0 l/m 12,4 km/h (3 Bft) 0,00 h 0,00 h 13,5 km/h (3 Bft)
18.01.2011 17:00 14,2 C 5,4 C 0,0 UV-I 0,0 C 61 % 92 % 0 % 1024,9 hPa 0,0 l/m 10,4 km/h (2 Bft) 0,00 h 0,00 h 10,4 km/h (2 Bft)
18.01.2011 18:00 14,1 C 5,2 C 0,0 UV-I 0,0 C 61 % 93 % 0 % 1025,7 hPa 0,1 l/m 4,9 km/h (1 Bft) 0,00 h 0,00 h 5,1 km/h (1 Bft)
18.01.2011 19:00 14,0 C 5,2 C 0,0 UV-I 0,0 C 60 % 93 % 0 % 1026,5 hPa 0,0 l/m 2,0 km/h (1 Bft) 0,00 h 0,00 h 2,1 km/h (1 Bft)
18.01.2011 20:00 13,9 C 5,2 C 0,0 UV-I 0,0 C 60 % 93 % 0 % 1027,0 hPa 0,0 l/m 5,3 km/h (1 Bft) 0,00 h 0,00 h 6,8 km/h (2 Bft)
18.01.2011 21:00 13,8 C 4,6 C 0,0 UV-I 0,0 C 59 % 91 % 0 % 1027,7 hPa 0,0 l/m 8,9 km/h (2 Bft) 0,00 h 0,00 h 10,0 km/h (2 Bft)
18.01.2011 22:00 13,8 C 4,5 C 0,0 UV-I 0,0 C 58 % 91 % 0 % 1028,0 hPa 0,0 l/m 3,7 km/h (1 Bft) 0,00 h 0,00 h 4,3 km/h (1 Bft)
18.01.2011 23:00 13,7 C 4,4 C 0,0 UV-I 0,0 C 58 % 91 % 0 % 1028,5 hPa 0,0 l/m 0,5 km/h (0 Bft) 0,00 h 0,00 h 0,9 km/h (0 Bft)
19.01.2011 00:00 13,6 C 4,5 C 0,0 UV-I 0,0 C 58 % 92 % 0 % 1029,1 hPa 0,0 l/m 0,6 km/h (0 Bft) 0,00 h 0,00 h 1,3 km/h (1 Bft)
19.01.2011 01:00 13,6 C 4,7 C 0,0 UV-I 0,0 C 58 % 92 % 0 % 1029,3 hPa 0,0 l/m 0,5 km/h (0 Bft) 0,00 h 0,00 h 0,7 km/h (0 Bft)
19.01.2011 02:00 13,6 C 4,7 C 0,0 UV-I 0,0 C 57 % 91 % 0 % 1029,8 hPa 0,0 l/m 1,2 km/h (1 Bft) 0,00 h 0,00 h 1,4 km/h (1 Bft)
19.01.2011 03:00 13,6 C 4,7 C 0,0 UV-I 0,0 C 57 % 92 % 0 % 1030,0 hPa 0,0 l/m 0,7 km/h (0 Bft) 0,00 h 0,00 h 1,1 km/h (1 Bft)
19.01.2011 04:00 13,6 C 4,7 C 0,0 UV-I 0,0 C 57 % 92 % 0 % 1029,8 hPa 0,0 l/m 1,5 km/h (1 Bft) 0,00 h 0,00 h 2,4 km/h (1 Bft)
19.01.2011 05:00 13,5 C 4,5 C 0,0 UV-I 0,0 C 57 % 91 % 0 % 1029,9 hPa 0,0 l/m 2,9 km/h (1 Bft) 0,00 h 0,00 h 4,3 km/h (1 Bft)
19.01.2011 06:00 13,4 C 4,3 C 0,0 UV-I 0,0 C 56 % 90 % 0 % 1029,9 hPa 0,0 l/m 2,7 km/h (1 Bft) 0,00 h 0,00 h 3,1 km/h (1 Bft)
19.01.2011 07:00 13,3 C 3,9 C 0,0 UV-I 0,0 C 56 % 90 % 0 % 1029,9 hPa 0,0 l/m 1,9 km/h (1 Bft) 0,00 h 0,00 h 2,2 km/h (1 Bft)
19.01.2011 08:00 13,2 C 3,9 C 0,0 UV-I 0,0 C 56 % 91 % 0 % 1030,3 hPa 0,0 l/m 1,7 km/h (1 Bft) 0,00 h 0,00 h 2,3 km/h (1 Bft)
19.01.2011 09:00 13,2 C 4,0 C 0,0 UV-I 0,0 C 56 % 92 % 0 % 1030,5 hPa 0,0 l/m 2,2 km/h (1 Bft) 0,00 h 0,00 h 3,1 km/h (1 Bft)
19.01.2011 10:00 13,4 C 4,5 C 0,1 UV-I 0,0 C 56 % 91 % 0 % 1030,8 hPa 0,0 l/m 3,3 km/h (1 Bft) 0,00 h 0,00 h 4,1 km/h (1 Bft)
19.01.2011 11:00 13,5 C 5,1 C 0,7 UV-I 1,8 C 56 % 90 % 52 % 1031,0 hPa 0,0 l/m 4,2 km/h (1 Bft) 0,33 h 0,00 h 6,5 km/h (2 Bft)
19.01.2011 12:00 13,6 C 5,7 C 1,0 UV-I 1,1 C 55 % 87 % 31 % 1030,9 hPa 0,0 l/m 5,2 km/h (1 Bft) 0,00 h 0,00 h 6,6 km/h (2 Bft)
19.01.2011 13:00 13,8 C 6,0 C 1,1 UV-I 1,3 C 55 % 85 % 36 % 1030,3 hPa 0,0 l/m 4,3 km/h (1 Bft) 0,20 h 0,00 h 5,3 km/h (1 Bft)
19.01.2011 14:00 14,4 C 6,5 C 0,6 UV-I 2,0 C 54 % 82 % 57 % 1030,2 hPa 0,0 l/m 6,1 km/h (2 Bft) 0,37 h 0,00 h 8,5 km/h (2 Bft)
19.01.2011 15:00 15,0 C 6,3 C 0,3 UV-I 0,4 C 51 % 80 % 11 % 1029,7 hPa 0,0 l/m 6,2 km/h (2 Bft) 0,03 h 0,00 h 7,3 km/h (2 Bft)
19.01.2011 16:00 14,5 C 5,7 C 0,0 UV-I 0,0 C 51 % 83 % 0 % 1029,0 hPa 1,2 l/m 7,0 km/h (2 Bft) 0,00 h 0,00 h 8,3 km/h (2 Bft)
19.01.2011 17:00 13,9 C 3,5 C 0,0 UV-I 0,0 C 53 % 89 % 0 % 1029,5 hPa 1,8 l/m 4,8 km/h (1 Bft) 0,00 h 0,00 h 5,5 km/h (1 Bft)
19.01.2011 18:00 13,4 C 2,7 C 0,0 UV-I 0,0 C 54 % 91 % 0 % 1029,0 hPa 0,0 l/m 0,9 km/h (0 Bft) 0,00 h 0,00 h 1,2 km/h (1 Bft)
19.01.2011 19:00 13,1 C 2,4 C 0,0 UV-I 0,0 C 55 % 92 % 0 % 1029,1 hPa 0,1 l/m 1,4 km/h (1 Bft) 0,00 h 0,00 h 1,5 km/h (1 Bft)
19.01.2011 20:00 12,9 C 2,2 C 0,0 UV-I 0,0 C 55 % 92 % 0 % 1029,2 hPa 0,0 l/m 0,4 km/h (0 Bft) 0,00 h 0,00 h 0,0 km/h (0 Bft)
19.01.2011 21:00 12,8 C 2,7 C 0,0 UV-I 0,0 C 55 % 93 % 0 % 1029,1 hPa 0,0 l/m 3,4 km/h (1 Bft) 0,00 h 0,00 h 4,1 km/h (1 Bft)
19.01.2011 22:00 12,9 C 2,8 C 0,0 UV-I 0,0 C 56 % 93 % 0 % 1029,1 hPa 0,0 l/m 3,1 km/h (1 Bft) 0,00 h 0,00 h 4,0 km/h (1 Bft)
19.01.2011 23:00 13,0 C 2,7 C 0,0 UV-I 0,0 C 55 % 93 % 0 % 1029,0 hPa 0,0 l/m 3,1 km/h (1 Bft) 0,00 h 0,00 h 3,4 km/h (1 Bft)
20.01.2011 00:00 13,0 C 2,8 C 0,0 UV-I 0,0 C 55 % 94 % 0 % 1028,8 hPa 0,0 l/m 0,2 km/h (0 Bft) 0,00 h 0,00 h 0,5 km/h (0 Bft)
20.01.2011 01:00 12,9 C 2,6 C 0,0 UV-I 0,0 C 55 % 94 % 0 % 1028,5 hPa 0,6 l/m 1,1 km/h (1 Bft) 0,00 h 0,00 h 2,1 km/h (1 Bft)
20.01.2011 02:00 12,8 C 2,5 C 0,0 UV-I 0,0 C 55 % 94 % 0 % 1028,3 hPa 0,1 l/m 0,8 km/h (0 Bft) 0,00 h 0,00 h 1,3 km/h (1 Bft)
20.01.2011 03:00 12,8 C 2,6 C 0,0 UV-I 0,0 C 55 % 94 % 0 % 1028,2 hPa 0,4 l/m 2,6 km/h (1 Bft) 0,00 h 0,00 h 3,7 km/h (1 Bft)
20.01.2011 04:00 12,8 C 2,7 C 0,0 UV-I 0,0 C 55 % 94 % 0 % 1028,1 hPa 0,0 l/m 7,5 km/h (2 Bft) 0,00 h 0,00 h 8,3 km/h (2 Bft)
20.01.2011 05:00 12,8 C 2,8 C 0,0 UV-I 0,0 C 55 % 94 % 0 % 1028,1 hPa 0,0 l/m 6,7 km/h (2 Bft) 0,00 h 0,00 h 6,4 km/h (2 Bft)
20.01.2011 06:00 12,8 C 2,8 C 0,0 UV-I 0,0 C 55 % 94 % 0 % 1028,3 hPa 0,0 l/m 4,0 km/h (1 Bft) 0,00 h 0,00 h 4,9 km/h (1 Bft)
20.01.2011 07:00 12,8 C 2,7 C 0,0 UV-I 0,0 C 55 % 94 % 0 % 1028,6 hPa 0,0 l/m 2,9 km/h (1 Bft) 0,00 h 0,00 h 3,9 km/h (1 Bft)
20.01.2011 08:00 12,8 C 2,7 C 0,0 UV-I 0,0 C 55 % 94 % 0 % 1029,1 hPa 0,0 l/m 6,0 km/h (2 Bft) 0,00 h 0,00 h 6,5 km/h (2 Bft)
20.01.2011 09:00 12,8 C 2,4 C 0,0 UV-I 0,0 C 55 % 93 % 0 % 1029,4 hPa 0,0 l/m 8,9 km/h (2 Bft) 0,00 h 0,00 h 9,4 km/h (2 Bft)
20.01.2011 10:00 12,8 C 2,3 C 0,0 UV-I 0,0 C 55 % 92 % 0 % 1030,1 hPa 0,0 l/m 9,0 km/h (2 Bft) 0,00 h 0,00 h 8,6 km/h (2 Bft)
20.01.2011 11:00 12,9 C 2,6 C 0,5 UV-I 0,0 C 54 % 91 % 0 % 1030,9 hPa 0,0 l/m 9,4 km/h (2 Bft) 0,00 h 0,00 h 10,9 km/h (2 Bft)
20.01.2011 12:00 13,1 C 2,9 C 0,9 UV-I 2,5 C 53 % 88 % 63 % 1031,2 hPa 0,0 l/m 8,6 km/h (2 Bft) 0,50 h 0,00 h 9,4 km/h (2 Bft)
20.01.2011 13:00 13,4 C 3,1 C 0,9 UV-I 1,2 C 53 % 86 % 35 % 1031,2 hPa 0,0 l/m 10,0 km/h (2 Bft) 0,00 h 0,00 h 9,9 km/h (2 Bft)
20.01.2011 14:00 13,5 C 3,0 C 0,4 UV-I 0,0 C 52 % 84 % 0 % 1031,3 hPa 0,0 l/m 10,8 km/h (2 Bft) 0,00 h 0,00 h 10,7 km/h (2 Bft)
20.01.2011 15:00 13,4 C 2,9 C 0,3 UV-I 0,0 C 52 % 82 % 0 % 1031,2 hPa 0,0 l/m 10,6 km/h (2 Bft) 0,00 h 0,00 h 10,4 km/h (2 Bft)
20.01.2011 16:00 13,1 C 2,9 C 0,0 UV-I 0,0 C 52 % 82 % 0 % 1031,2 hPa 0,0 l/m 8,6 km/h (2 Bft) 0,00 h 0,00 h 8,6 km/h (2 Bft)
20.01.2011 17:00 12,9 C 2,7 C 0,0 UV-I 0,0 C 52 % 80 % 0 % 1031,5 hPa 0,0 l/m 7,7 km/h (2 Bft) 0,00 h 0,00 h 7,6 km/h (2 Bft)
20.01.2011 18:00 12,8 C 2,5 C 0,0 UV-I 0,0 C 52 % 82 % 0 % 1031,9 hPa 0,0 l/m 3,7 km/h (1 Bft) 0,00 h 0,00 h 4,2 km/h (1 Bft)
20.01.2011 19:00 12,7 C 1,8 C 0,0 UV-I 0,0 C 51 % 82 % 0 % 1032,4 hPa 0,0 l/m 5,3 km/h (1 Bft) 0,00 h 0,00 h 5,9 km/h (2 Bft)
20.01.2011 20:00 12,5 C 1,3 C 0,0 UV-I 0,0 C 51 % 84 % 0 % 1032,9 hPa 0,0 l/m 5,7 km/h (1 Bft) 0,00 h 0,00 h 6,2 km/h (2 Bft)
20.01.2011 21:00 12,4 C 0,6 C 0,0 UV-I 0,0 C 51 % 86 % 0 % 1033,2 hPa 0,0 l/m 6,5 km/h (2 Bft) 0,00 h 0,00 h 6,1 km/h (2 Bft)
20.01.2011 22:00 12,2 C 0,1 C 0,0 UV-I 0,0 C 51 % 88 % 0 % 1033,4 hPa 0,0 l/m 3,9 km/h (1 Bft) 0,00 h 0,00 h 3,7 km/h (1 Bft)
20.01.2011 23:00 12,1 C -0,4 C 0,0 UV-I 0,0 C 51 % 89 % 0 % 1034,0 hPa 0,0 l/m 2,7 km/h (1 Bft) 0,00 h 0,00 h 2,5 km/h (1 Bft)
21.01.2011 00:00 11,9 C -1,2 C 0,0 UV-I 0,0 C 51 % 89 % 0 % 1034,3 hPa 0,0 l/m 0,0 km/h (0 Bft) 0,00 h 0,00 h 0,0 km/h (0 Bft)
21.01.2011 01:00 11,8 C -1,5 C 0,0 UV-I 0,0 C 51 % 90 % 0 % 1034,1 hPa 0,0 l/m 0,3 km/h (0 Bft) 0,00 h 0,00 h 0,5 km/h (0 Bft)
21.01.2011 02:00 11,6 C -1,8 C 0,0 UV-I 0,0 C 51 % 91 % 0 % 1034,2 hPa 0,0 l/m 0,1 km/h (0 Bft) 0,00 h 0,00 h 0,4 km/h (0 Bft)
21.01.2011 03:00 11,5 C -2,3 C 0,0 UV-I 0,0 C 50 % 91 % 0 % 1034,7 hPa 0,0 l/m 0,0 km/h (0 Bft) 0,00 h 0,00 h 0,0 km/h (0 Bft)
21.01.2011 04:00 11,4 C -2,7 C 0,0 UV-I 0,0 C 50 % 92 % 0 % 1034,8 hPa 0,0 l/m 0,0 km/h (0 Bft) 0,00 h 0,00 h 0,0 km/h (0 Bft)
21.01.2011 05:00 11,3 C -2,9 C 0,0 UV-I 0,0 C 50 % 92 % 0 % 1034,9 hPa 0,0 l/m 0,0 km/h (0 Bft) 0,00 h 0,00 h 0,0 km/h (0 Bft)
21.01.2011 06:00 11,1 C -3,1 C 0,0 UV-I 0,0 C 50 % 92 % 0 % 1035,1 hPa 0,0 l/m 0,0 km/h (0 Bft) 0,00 h 0,00 h 0,0 km/h (0 Bft)
21.01.2011 07:00 11,2 C -3,2 C 0,0 UV-I 0,0 C 50 % 92 % 0 % 1035,1 hPa 0,0 l/m 0,0 km/h (0 Bft) 0,00 h 0,00 h 0,0 km/h (0 Bft)
21.01.2011 08:00 11,0 C -3,0 C 0,0 UV-I 0,0 C 50 % 93 % 0 % 1035,1 hPa 0,0 l/m 0,0 km/h (0 Bft) 0,00 h 0,00 h 0,0 km/h (0 Bft)
21.01.2011 09:00 11,0 C -2,6 C 0,0 UV-I 0,0 C 50 % 93 % 0 % 1035,3 hPa 0,0 l/m 0,1 km/h (0 Bft) 0,00 h 0,00 h 0,3 km/h (0 Bft)
21.01.2011 10:00 11,1 C -1,8 C 0,5 UV-I 0,0 C 49 % 93 % 0 % 1035,9 hPa 0,0 l/m 1,1 km/h (1 Bft) 0,00 h 0,00 h 2,1 km/h (1 Bft)
21.01.2011 11:00 11,3 C -1,1 C 0,9 UV-I 0,0 C 49 % 92 % 0 % 1036,4 hPa 0,0 l/m 2,8 km/h (1 Bft) 0,00 h 0,00 h 3,7 km/h (1 Bft)
21.01.2011 12:00 11,5 C -1,0 C 0,8 UV-I 0,0 C 48 % 91 % 0 % 1036,3 hPa 0,0 l/m 4,0 km/h (1 Bft) 0,00 h 0,00 h 4,1 km/h (1 Bft)
21.01.2011 13:00 11,6 C -0,9 C 0,6 UV-I 0,0 C 48 % 91 % 0 % 1035,9 hPa 0,0 l/m 1,5 km/h (1 Bft) 0,00 h 0,00 h 1,4 km/h (1 Bft)
21.01.2011 14:00 11,6 C -0,5 C 0,6 UV-I 0,1 C 48 % 90 % 2 % 1035,4 hPa 0,0 l/m 1,3 km/h (1 Bft) 0,00 h 0,00 h 2,2 km/h (1 Bft)
21.01.2011 15:00 11,6 C -0,2 C 0,4 UV-I 0,1 C 48 % 90 % 3 % 1035,0 hPa 0,0 l/m 1,6 km/h (1 Bft) 0,00 h 0,00 h 2,0 km/h (1 Bft)
21.01.2011 16:00 11,6 C -0,1 C 0,1 UV-I 0,0 C 48 % 91 % 0 % 1034,8 hPa 0,0 l/m 1,8 km/h (1 Bft) 0,00 h 0,00 h 2,2 km/h (1 Bft)
21.01.2011 17:00 11,4 C -0,2 C 0,0 UV-I 0,0 C 48 % 91 % 0 % 1034,7 hPa 0,0 l/m 0,8 km/h (0 Bft) 0,00 h 0,00 h 0,8 km/h (0 Bft)
21.01.2011 18:00 11,2 C -0,1 C 0,0 UV-I 0,0 C 49 % 92 % 0 % 1034,4 hPa 0,0 l/m 0,5 km/h (0 Bft) 0,00 h 0,00 h 1,1 km/h (1 Bft)
21.01.2011 19:00 11,1 C -0,1 C 0,0 UV-I 0,0 C 50 % 93 % 0 % 1034,4 hPa 0,0 l/m 0,9 km/h (0 Bft) 0,00 h 0,00 h 1,0 km/h (0 Bft)
21.01.2011 20:00 11,2 C 0,1 C 0,0 UV-I 0,0 C 50 % 93 % 0 % 1034,4 hPa 0,0 l/m 0,4 km/h (0 Bft) 0,00 h 0,00 h 0,7 km/h (0 Bft)
21.01.2011 21:00 11,1 C 0,4 C 0,0 UV-I 0,0 C 50 % 93 % 0 % 1034,1 hPa 0,0 l/m 0,8 km/h (0 Bft) 0,00 h 0,00 h 0,8 km/h (0 Bft)
21.01.2011 22:00 11,1 C 0,7 C 0,0 UV-I 0,0 C 51 % 93 % 0 % 1034,1 hPa 0,0 l/m 0,1 km/h (0 Bft) 0,00 h 0,00 h 0,2 km/h (0 Bft)
21.01.2011 23:00 11,2 C 1,0 C 0,0 UV-I 0,0 C 51 % 93 % 0 % 1034,1 hPa 0,0 l/m 0,2 km/h (0 Bft) 0,00 h 0,00 h 0,3 km/h (0 Bft)
22.01.2011 00:00 11,3 C 1,2 C 0,0 UV-I 0,0 C 52 % 94 % 0 % 1033,9 hPa 0,0 l/m 0,0 km/h (0 Bft) 0,00 h 0,00 h 0,0 km/h (0 Bft)
22.01.2011 01:00 11,4 C 1,2 C 0,0 UV-I 0,0 C 52 % 94 % 0 % 1033,7 hPa 0,0 l/m 0,0 km/h (0 Bft) 0,00 h 0,00 h 0,0 km/h (0 Bft)
22.01.2011 02:00 11,4 C 1,4 C 0,0 UV-I 0,0 C 53 % 94 % 0 % 1033,5 hPa 0,3 l/m 0,0 km/h (0 Bft) 0,00 h 0,00 h 0,0 km/h (0 Bft)
22.01.2011 03:00 11,4 C 1,5 C 0,0 UV-I 0,0 C 53 % 94 % 0 % 1033,2 hPa 0,2 l/m 0,0 km/h (0 Bft) 0,00 h 0,00 h 0,0 km/h (0 Bft)
22.01.2011 04:00 11,5 C 1,7 C 0,0 UV-I 0,0 C 53 % 94 % 0 % 1033,2 hPa 0,2 l/m 0,0 km/h (0 Bft) 0,00 h 0,00 h 0,0 km/h (0 Bft)
22.01.2011 05:00 11,6 C 2,0 C 0,0 UV-I 0,0 C 53 % 94 % 0 % 1032,9 hPa 0,1 l/m 0,0 km/h (0 Bft) 0,00 h 0,00 h 0,0 km/h (0 Bft)
22.01.2011 06:00 11,6 C 2,1 C 0,0 UV-I 0,0 C 54 % 94 % 0 % 1031,7 hPa 0,1 l/m 0,0 km/h (0 Bft) 0,00 h 0,00 h 0,0 km/h (0 Bft)
22.01.2011 07:00 11,6 C 2,3 C 0,0 UV-I 0,0 C 54 % 94 % 0 % 1031,3 hPa 0,1 l/m 0,0 km/h (0 Bft) 0,00 h 0,00 h 0,0 km/h (0 Bft)
22.01.2011 08:00 11,7 C 2,4 C 0,0 UV-I 0,0 C 54 % 94 % 0 % 1031,0 hPa 0,1 l/m 0,0 km/h (0 Bft) 0,00 h 0,00 h 0,0 km/h (0 Bft)
22.01.2011 09:00 11,7 C 2,5 C 0,0 UV-I 0,0 C 55 % 95 % 0 % 1030,6 hPa 0,0 l/m 0,0 km/h (0 Bft) 0,00 h 0,00 h 0,0 km/h (0 Bft)
22.01.2011 10:00 11,7 C 2,8 C 0,0 UV-I 0,0 C 55 % 95 % 0 % 1030,8 hPa 0,0 l/m 0,0 km/h (0 Bft) 0,00 h 0,00 h 0,0 km/h (0 Bft)
22.01.2011 11:00 11,8 C 2,9 C 0,0 UV-I 0,0 C 55 % 95 % 0 % 1030,5 hPa 0,2 l/m 0,8 km/h (0 Bft) 0,00 h 0,00 h 1,6 km/h (1 Bft)
22.01.2011 12:00 12,0 C 2,6 C 0,1 UV-I 0,0 C 55 % 95 % 0 % 1030,2 hPa 0,0 l/m 2,1 km/h (1 Bft) 0,00 h 0,00 h 2,8 km/h (1 Bft)
22.01.2011 13:00 11,9 C 2,4 C 0,2 UV-I 0,0 C 55 % 95 % 0 % 1030,2 hPa 0,0 l/m 2,5 km/h (1 Bft) 0,00 h 0,00 h 3,5 km/h (1 Bft)
22.01.2011 14:00 12,0 C 2,4 C 0,2 UV-I 0,0 C 55 % 95 % 0 % 1030,0 hPa 0,1 l/m 4,2 km/h (1 Bft) 0,00 h 0,00 h 5,0 km/h (1 Bft)
22.01.2011 15:00 11,9 C 2,4 C 0,1 UV-I 0,0 C 55 % 95 % 0 % 1029,6 hPa 0,1 l/m 3,5 km/h (1 Bft) 0,00 h 0,00 h 3,8 km/h (1 Bft)
22.01.2011 16:00 11,9 C 2,4 C 0,0 UV-I 0,0 C 55 % 95 % 0 % 1029,5 hPa 0,1 l/m 0,6 km/h (0 Bft) 0,00 h 0,00 h 0,6 km/h (0 Bft)
22.01.2011 17:00 11,9 C 2,4 C 0,0 UV-I 0,0 C 55 % 95 % 0 % 1029,4 hPa 0,1 l/m 0,7 km/h (0 Bft) 0,00 h 0,00 h 1,1 km/h (1 Bft)
22.01.2011 18:00 11,8 C 2,3 C 0,0 UV-I 0,0 C 55 % 95 % 0 % 1029,3 hPa 0,0 l/m 1,5 km/h (1 Bft) 0,00 h 0,00 h 1,7 km/h (1 Bft)
22.01.2011 19:00 11,8 C 2,2 C 0,0 UV-I 0,0 C 55 % 95 % 0 % 1029,4 hPa 0,0 l/m 1,6 km/h (1 Bft) 0,00 h 0,00 h 1,9 km/h (1 Bft)
22.01.2011 20:00 11,8 C 2,1 C 0,0 UV-I 0,0 C 55 % 95 % 0 % 1029,4 hPa 0,1 l/m 1,0 km/h (0 Bft) 0,00 h 0,00 h 1,0 km/h (0 Bft)
22.01.2011 21:00 11,8 C 2,2 C 0,0 UV-I 0,0 C 55 % 95 % 0 % 1029,5 hPa 0,0 l/m 0,8 km/h (0 Bft) 0,00 h 0,00 h 1,0 km/h (0 Bft)
22.01.2011 22:00 11,8 C 2,3 C 0,0 UV-I 0,0 C 55 % 95 % 0 % 1029,5 hPa 0,0 l/m 0,0 km/h (0 Bft) 0,00 h 0,00 h 0,0 km/h (0 Bft)
22.01.2011 23:00 11,9 C 2,4 C 0,0 UV-I 0,0 C 55 % 95 % 0 % 1029,7 hPa 0,1 l/m 0,0 km/h (0 Bft) 0,00 h 0,00 h 0,0 km/h (0 Bft)
23.01.2011 00:00 11,9 C 2,5 C 0,0 UV-I 0,0 C 55 % 95 % 0 % 1029,5 hPa 0,0 l/m 0,0 km/h (0 Bft) 0,00 h 0,00 h 0,0 km/h (0 Bft)
23.01.2011 01:00 11,9 C 2,7 C 0,0 UV-I 0,0 C 56 % 95 % 0 % 1029,4 hPa 0,0 l/m 0,4 km/h (0 Bft) 0,00 h 0,00 h 1,2 km/h (1 Bft)
23.01.2011 02:00 12,0 C 3,1 C 0,0 UV-I 0,0 C 56 % 95 % 0 % 1029,0 hPa 0,0 l/m 2,6 km/h (1 Bft) 0,00 h 0,00 h 4,3 km/h (1 Bft)
23.01.2011 03:00 11,9 C 3,0 C 0,0 UV-I 0,0 C 56 % 95 % 0 % 1028,8 hPa 0,0 l/m 7,2 km/h (2 Bft) 0,00 h 0,00 h 9,4 km/h (2 Bft)
23.01.2011 04:00 12,0 C 2,5 C 0,0 UV-I 0,0 C 55 % 95 % 0 % 1028,6 hPa 0,0 l/m 10,7 km/h (2 Bft) 0,00 h 0,00 h 11,2 km/h (2 Bft)
23.01.2011 05:00 12,0 C 2,1 C 0,0 UV-I 0,0 C 55 % 94 % 0 % 1028,5 hPa 0,0 l/m 6,7 km/h (2 Bft) 0,00 h 0,00 h 6,8 km/h (2 Bft)
23.01.2011 06:00 11,9 C 1,7 C 0,0 UV-I 0,0 C 54 % 94 % 0 % 1028,4 hPa 0,0 l/m 1,1 km/h (0 Bft) 0,00 h 0,00 h 1,5 km/h (1 Bft)
23.01.2011 07:00 11,8 C 1,5 C 0,0 UV-I 0,0 C 54 % 95 % 0 % 1028,1 hPa 0,1 l/m 0,2 km/h (0 Bft) 0,00 h 0,00 h 0,3 km/h (0 Bft)
23.01.2011 08:00 11,7 C 1,6 C 0,0 UV-I 0,0 C 54 % 95 % 0 % 1027,9 hPa 0,0 l/m 1,0 km/h (0 Bft) 0,00 h 0,00 h 1,4 km/h (1 Bft)
23.01.2011 09:00 11,6 C 1,8 C 0,0 UV-I 0,0 C 55 % 95 % 0 % 1027,5 hPa 0,1 l/m 1,7 km/h (1 Bft) 0,00 h 0,00 h 2,4 km/h (1 Bft)
23.01.2011 10:00 11,6 C 2,1 C 0,0 UV-I 0,0 C 55 % 95 % 0 % 1027,4 hPa 0,0 l/m 2,4 km/h (1 Bft) 0,00 h 0,00 h 3,9 km/h (1 Bft)
23.01.2011 11:00 11,6 C 2,7 C 0,2 UV-I 0,0 C 55 % 95 % 0 % 1027,1 hPa 0,1 l/m 3,0 km/h (1 Bft) 0,00 h 0,00 h 3,7 km/h (1 Bft)
23.01.2011 12:00 11,8 C 3,6 C 0,2 UV-I 0,1 C 57 % 96 % 2 % 1026,7 hPa 0,0 l/m 3,2 km/h (1 Bft) 0,00 h 0,00 h 4,4 km/h (1 Bft)
23.01.2011 13:00 12,0 C 4,7 C 0,3 UV-I 0,3 C 58 % 96 % 9 % 1026,2 hPa 0,1 l/m 2,1 km/h (1 Bft) 0,00 h 0,00 h 2,6 km/h (1 Bft)
23.01.2011 14:00 12,2 C 5,4 C 0,1 UV-I 0,1 C 58 % 96 % 2 % 1025,9 hPa 0,0 l/m 1,9 km/h (1 Bft) 0,00 h 0,00 h 3,5 km/h (1 Bft)
23.01.2011 15:00 12,4 C 5,6 C 0,0 UV-I 0,0 C 58 % 95 % 0 % 1025,7 hPa 0,1 l/m 1,4 km/h (1 Bft) 0,00 h 0,00 h 1,7 km/h (1 Bft)
23.01.2011 16:00 12,4 C 5,6 C 0,0 UV-I 0,0 C 59 % 95 % 0 % 1025,5 hPa 0,1 l/m 2,1 km/h (1 Bft) 0,00 h 0,00 h 2,5 km/h (1 Bft)
23.01.2011 17:00 12,3 C 5,5 C 0,0 UV-I 0,0 C 59 % 95 % 0 % 1025,6 hPa 0,0 l/m 0,4 km/h (0 Bft) 0,00 h 0,00 h 0,6 km/h (0 Bft)
23.01.2011 18:00 12,3 C 5,5 C 0,0 UV-I 0,0 C 59 % 95 % 0 % 1025,5 hPa 0,1 l/m 2,6 km/h (1 Bft) 0,00 h 0,00 h 3,2 km/h (1 Bft)
23.01.2011 19:00 12,4 C 5,4 C 0,0 UV-I 0,0 C 59 % 95 % 0 % 1025,6 hPa 0,0 l/m 3,1 km/h (1 Bft) 0,00 h 0,00 h 2,6 km/h (1 Bft)
23.01.2011 20:00 12,4 C 5,3 C 0,0 UV-I 0,0 C 59 % 95 % 0 % 1025,6 hPa 0,1 l/m 1,0 km/h (0 Bft) 0,00 h 0,00 h 1,1 km/h (0 Bft)
23.01.2011 21:00 12,4 C 5,1 C 0,0 UV-I 0,0 C 59 % 95 % 0 % 1025,9 hPa 0,0 l/m 0,0 km/h (0 Bft) 0,00 h 0,00 h 0,1 km/h (0 Bft)
23.01.2011 22:00 12,5 C 5,1 C 0,0 UV-I 0,0 C 59 % 95 % 0 % 1026,2 hPa 0,0 l/m 1,5 km/h (1 Bft) 0,00 h 0,00 h 1,9 km/h (1 Bft)
23.01.2011 23:00 12,6 C 4,8 C 0,0 UV-I 0,0 C 59 % 95 % 0 % 1026,4 hPa 0,0 l/m 1,1 km/h (1 Bft) 0,00 h 0,00 h 1,8 km/h (1 Bft)
Min-Datum _ 21.01.11 21.01.11 17.01.11 17.01.11 21.01.11 19.01.11 17.01.11 17.01.11 - 18.01.11 - - 17.01.11
_ Min-Zeit 08:16 07:02 00:00 00:00 14:44 14:58 00:00 18:06 - 04:38 - - 00:06
Minimum _ 10,9 C -3,3 C 0,0 UV-I 0,0 C 47 % 78 % 0 % 1021,1 hPa - 0,0 km/h (0 Bft) - - 0,0 km/h (0 Bft)
Max-Datum _ 17.01.11 17.01.11 17.01.11 20.01.11 18.01.11 23.01.11 19.01.11 21.01.11 18.01.11 18.01.11 17.01.11 17.01.11 19.01.11
_ Max-Zeit 14:46 17:46 11:14 12:48 09:28 11:18 13:00 10:46 14:00 16:48 11:08 00:00 17:04
Maximum _ 15,1 C 10,3 C 1,7 UV-I 5,1 C 63 % 96 % 100 % 1036,4 hPa 3,6 l/m 14,9 km/h
SW (3 Bft)
0,03 h 0,00 h 31,5 km/h
SW (5 Bft)
Durchschnitt _ 12,9 C 3,7 C 0,1 UV-I 0,1 C 56 % 91 % 3 % 1028,5 hPa #14,6 l/m 3,1 km/h (1 Bft) #2:08 h #0 min. 3,7 km/h (1 Bft)
© 2012 W. Hausmann